createdAt,value
2019-03-29T00:00:43.927Z,30.12
2019-03-29T00:01:49.239Z,36.60
2019-03-29T00:02:54.389Z,31.75
2019-03-29T00:04:00.954Z,32.50
2019-03-29T00:05:06.300Z,31.12
2019-03-29T00:06:11.495Z,38.02
2019-03-29T00:07:16.658Z,45.35
2019-03-29T00:08:21.814Z,56.50
2019-03-29T00:09:26.968Z,51.85
2019-03-29T00:10:32.104Z,42.67
2019-03-29T00:11:38.235Z,38.05
2019-03-29T00:12:44.057Z,35.03
2019-03-29T00:13:49.899Z,33.28
2019-03-29T00:14:55.253Z,36.70
2019-03-29T00:16:00.352Z,33.67
2019-03-29T00:17:05.472Z,34.33
2019-03-29T00:18:10.655Z,48.78
2019-03-29T00:19:15.785Z,40.78
2019-03-29T00:20:20.931Z,40.73
2019-03-29T00:21:26.128Z,37.05
2019-03-29T00:22:31.268Z,37.50
2019-03-29T00:23:36.380Z,37.88
2019-03-29T00:24:41.447Z,37.70
2019-03-29T00:25:46.549Z,34.30
2019-03-29T00:26:52.549Z,39.98
2019-03-29T00:27:58.292Z,82.55
2019-03-29T00:29:03.486Z,36.75
2019-03-29T00:30:09.104Z,38.50
2019-03-29T00:31:14.248Z,37.45
2019-03-29T00:32:19.458Z,37.23
2019-03-29T00:33:24.613Z,36.77
2019-03-29T00:34:29.832Z,44.20
2019-03-29T00:35:34.948Z,33.73
2019-03-29T00:36:40.094Z,38.08
2019-03-29T00:37:53.525Z,37.13
2019-03-29T00:38:52.162Z,36.95
2019-03-29T00:39:57.388Z,35.08
2019-03-29T00:41:02.713Z,41.48
2019-03-29T00:42:07.824Z,32.65
2019-03-29T00:43:12.947Z,39.03
2019-03-29T00:44:18.068Z,44.08
2019-03-29T00:45:23.648Z,35.30
2019-03-29T00:46:28.904Z,38.60
2019-03-29T00:47:34.130Z,35.33
2019-03-29T00:48:39.325Z,36.93
2019-03-29T00:49:44.488Z,37.13
2019-03-29T00:50:49.602Z,36.42
2019-03-29T00:51:54.860Z,37.88
2019-03-29T00:53:00.103Z,33.67
2019-03-29T00:54:05.265Z,34.78
2019-03-29T00:55:11.298Z,33.42
2019-03-29T00:56:16.595Z,35.68
2019-03-29T00:57:21.785Z,36.40
2019-03-29T00:58:26.920Z,34.00
2019-03-29T00:59:32.104Z,33.78
2019-03-29T01:00:37.264Z,34.38
2019-03-29T01:01:42.424Z,32.88
2019-03-29T01:02:47.596Z,32.88
2019-03-29T01:03:55.027Z,36.50
2019-03-29T01:05:00.302Z,31.60
2019-03-29T01:06:05.504Z,37.08
2019-03-29T01:07:10.668Z,32.58
2019-03-29T01:08:15.844Z,36.70
2019-03-29T01:09:21.210Z,34.75
2019-03-29T01:10:26.479Z,35.08
2019-03-29T01:11:31.850Z,33.30
2019-03-29T01:12:37.019Z,31.73
2019-03-29T01:13:42.138Z,37.73
2019-03-29T01:14:47.276Z,33.83
2019-03-29T01:15:52.596Z,38.05
2019-03-29T01:16:57.789Z,35.52
2019-03-29T01:18:03.184Z,34.30
2019-03-29T01:19:08.427Z,37.95
2019-03-29T01:20:15.898Z,38.55
2019-03-29T01:21:23.923Z,36.45
2019-03-29T01:22:29.095Z,34.15
2019-03-29T01:23:34.393Z,33.30
2019-03-29T01:24:39.491Z,37.50
2019-03-29T01:25:44.933Z,42.93
2019-03-29T01:26:52.393Z,37.75
2019-03-29T01:27:57.042Z,34.73
2019-03-29T01:29:02.683Z,37.35
2019-03-29T01:30:08.542Z,34.25
2019-03-29T01:31:15.032Z,32.10
2019-03-29T01:32:20.312Z,36.05
2019-03-29T01:33:25.440Z,37.45
2019-03-29T01:34:30.686Z,37.45
2019-03-29T01:35:36.126Z,41.50
2019-03-29T01:36:41.830Z,41.28
2019-03-29T01:37:47.067Z,39.27
2019-03-29T01:38:52.455Z,36.80
2019-03-29T01:39:59.209Z,43.17
2019-03-29T01:41:04.546Z,41.30
2019-03-29T01:42:09.813Z,43.68
2019-03-29T01:43:14.971Z,41.35
2019-03-29T01:44:21.119Z,39.13
2019-03-29T01:45:26.276Z,41.58
2019-03-29T01:46:31.445Z,41.92
2019-03-29T01:47:36.588Z,41.42
2019-03-29T01:48:41.678Z,40.83
2019-03-29T01:49:47.832Z,44.95
2019-03-29T01:50:53.005Z,41.88
2019-03-29T01:51:58.204Z,37.63
2019-03-29T01:53:03.360Z,42.30
2019-03-29T01:54:08.480Z,50.52
2019-03-29T01:55:13.749Z,45.40
2019-03-29T01:56:18.913Z,44.27
2019-03-29T01:57:24.030Z,44.95
2019-03-29T01:58:29.216Z,44.18
2019-03-29T01:59:34.299Z,42.00
2019-03-29T02:00:39.544Z,45.25
2019-03-29T02:01:44.644Z,46.05
2019-03-29T02:02:49.764Z,43.50
2019-03-29T02:03:54.924Z,45.10
2019-03-29T02:05:00.238Z,44.33
2019-03-29T02:06:06.240Z,42.48
2019-03-29T02:07:11.390Z,47.50
2019-03-29T02:08:17.278Z,41.63
2019-03-29T02:09:22.396Z,43.68
2019-03-29T02:10:27.595Z,40.55
2019-03-29T02:11:32.729Z,51.50
2019-03-29T02:12:37.839Z,41.10
2019-03-29T02:13:43.017Z,42.20
2019-03-29T02:14:48.497Z,45.28
2019-03-29T02:15:53.661Z,42.65
2019-03-29T02:16:58.850Z,46.45
2019-03-29T02:18:04.027Z,45.35
2019-03-29T02:19:09.182Z,44.65
2019-03-29T02:20:14.660Z,45.33
2019-03-29T02:21:19.938Z,44.67
2019-03-29T02:22:25.015Z,42.10
2019-03-29T02:23:30.217Z,43.28
2019-03-29T02:24:36.046Z,42.48
2019-03-29T02:25:41.199Z,43.78
2019-03-29T02:26:46.335Z,40.92
2019-03-29T02:27:52.274Z,42.50
2019-03-29T02:28:58.126Z,40.35
2019-03-29T02:30:04.580Z,41.53
2019-03-29T02:31:10.161Z,43.70
2019-03-29T02:32:15.287Z,43.40
2019-03-29T02:33:21.167Z,47.43
2019-03-29T02:34:27.382Z,50.03
2019-03-29T02:35:32.515Z,38.95
2019-03-29T02:36:37.688Z,47.85
2019-03-29T02:37:42.815Z,44.63
2019-03-29T02:38:55.646Z,41.48
2019-03-29T02:39:55.211Z,42.25
2019-03-29T02:41:00.472Z,40.45
2019-03-29T02:42:05.609Z,39.95
2019-03-29T02:43:11.166Z,48.33
2019-03-29T02:44:16.389Z,56.77
2019-03-29T02:45:21.523Z,83.30
2019-03-29T02:46:26.753Z,54.85
2019-03-29T02:47:31.942Z,48.23
2019-03-29T02:48:37.229Z,111.45
2019-03-29T02:49:42.378Z,85.12
2019-03-29T02:50:47.569Z,91.50
2019-03-29T02:51:52.797Z,37.93
2019-03-29T02:52:57.957Z,43.63
2019-03-29T02:54:03.118Z,43.15
2019-03-29T02:55:08.439Z,37.65
2019-03-29T02:56:13.545Z,35.35
2019-03-29T02:57:18.833Z,34.33
2019-03-29T02:58:23.954Z,39.88
2019-03-29T02:59:29.093Z,37.75
2019-03-29T03:00:34.364Z,38.80
2019-03-29T03:01:39.536Z,40.33
2019-03-29T03:02:46.023Z,48.83
2019-03-29T03:03:51.163Z,40.33
2019-03-29T03:04:56.341Z,36.13
2019-03-29T03:06:01.484Z,33.55
2019-03-29T03:07:06.714Z,39.70
2019-03-29T03:08:11.834Z,38.75
2019-03-29T03:09:17.110Z,39.85
2019-03-29T03:10:22.585Z,36.70
2019-03-29T03:11:27.790Z,35.68
2019-03-29T03:12:33.023Z,37.90
2019-03-29T03:13:38.113Z,33.13
2019-03-29T03:14:43.228Z,40.80
2019-03-29T03:15:48.428Z,36.20
2019-03-29T03:16:54.510Z,34.50
2019-03-29T03:17:59.735Z,33.35
2019-03-29T03:19:04.815Z,36.30
2019-03-29T03:20:15.193Z,40.50
2019-03-29T03:21:18.790Z,31.35
2019-03-29T03:22:23.914Z,33.40
2019-03-29T03:23:29.046Z,32.15
2019-03-29T03:24:34.324Z,31.80
2019-03-29T03:25:45.988Z,29.45
2019-03-29T03:26:51.178Z,28.23
2019-03-29T03:27:57.707Z,29.02
2019-03-29T03:29:02.913Z,32.17
2019-03-29T03:30:09.083Z,32.73
2019-03-29T03:31:14.868Z,28.15
2019-03-29T03:32:20.088Z,28.65
2019-03-29T03:33:25.280Z,28.62
2019-03-29T03:34:30.455Z,31.37
2019-03-29T03:35:35.579Z,31.07
2019-03-29T03:36:40.697Z,31.10
2019-03-29T03:37:45.844Z,31.90
2019-03-29T03:38:51.445Z,37.33
2019-03-29T03:39:56.595Z,31.27
2019-03-29T03:41:01.745Z,33.15
2019-03-29T03:42:07.014Z,30.77
2019-03-29T03:43:12.171Z,36.90
2019-03-29T03:44:17.333Z,35.35
2019-03-29T03:45:22.526Z,33.35
2019-03-29T03:46:27.678Z,31.10
2019-03-29T03:47:32.875Z,33.60
2019-03-29T03:48:38.059Z,37.83
2019-03-29T03:49:43.145Z,33.70
2019-03-29T03:50:48.275Z,37.63
2019-03-29T03:51:53.559Z,32.98
2019-03-29T03:52:58.723Z,31.65
2019-03-29T03:54:03.949Z,33.92
2019-03-29T03:55:09.117Z,32.60
2019-03-29T03:56:15.818Z,39.30
2019-03-29T03:57:22.035Z,34.03
2019-03-29T03:58:27.816Z,36.17
2019-03-29T03:59:33.916Z,33.78
2019-03-29T04:00:58.939Z,38.45
2019-03-29T04:02:04.136Z,40.17
2019-03-29T04:03:09.248Z,41.45
2019-03-29T04:04:14.357Z,43.23
2019-03-29T04:05:19.605Z,41.28
2019-03-29T04:06:24.856Z,42.23
2019-03-29T04:07:30.017Z,43.70
2019-03-29T04:08:35.217Z,48.13
2019-03-29T04:09:49.399Z,42.65
2019-03-29T04:10:47.374Z,43.98
2019-03-29T04:11:52.518Z,37.98
2019-03-29T04:12:57.644Z,46.15
2019-03-29T04:14:02.774Z,48.05
2019-03-29T04:15:08.054Z,42.17
2019-03-29T04:16:13.214Z,47.33
2019-03-29T04:17:18.312Z,43.17
2019-03-29T04:18:24.535Z,44.95
2019-03-29T04:19:29.737Z,39.45
2019-03-29T04:20:34.843Z,47.53
2019-03-29T04:21:39.975Z,45.35
2019-03-29T04:22:45.125Z,46.92
2019-03-29T04:23:50.252Z,51.77
2019-03-29T04:24:55.458Z,49.48
2019-03-29T04:26:00.589Z,52.50
2019-03-29T04:27:05.735Z,47.80
2019-03-29T04:28:11.132Z,48.58
2019-03-29T04:29:16.270Z,52.20
2019-03-29T04:30:21.558Z,43.60
2019-03-29T04:31:26.771Z,51.42
2019-03-29T04:32:31.949Z,52.60
2019-03-29T04:33:37.061Z,51.48
2019-03-29T04:34:42.421Z,49.30
2019-03-29T04:35:47.654Z,52.67
2019-03-29T04:36:53.759Z,55.92
2019-03-29T04:37:58.941Z,55.58
2019-03-29T04:39:05.492Z,50.20
2019-03-29T04:40:10.606Z,53.45
2019-03-29T04:41:15.728Z,52.78
2019-03-29T04:42:20.886Z,58.63
2019-03-29T04:43:26.030Z,51.08
2019-03-29T04:44:31.215Z,55.23
2019-03-29T04:45:36.398Z,54.38
2019-03-29T04:46:41.637Z,60.00
2019-03-29T04:47:46.808Z,53.28
2019-03-29T04:48:51.930Z,60.67
2019-03-29T04:49:57.039Z,60.75
2019-03-29T04:51:02.192Z,62.80
2019-03-29T04:52:07.364Z,59.67
2019-03-29T04:53:12.536Z,63.75
2019-03-29T04:54:17.667Z,58.78
2019-03-29T04:55:22.896Z,68.67
2019-03-29T04:56:28.008Z,59.25
2019-03-29T04:57:33.155Z,58.70
2019-03-29T04:58:38.289Z,71.05
2019-03-29T04:59:43.441Z,368.10
2019-03-29T05:00:48.510Z,82.75
2019-03-29T05:01:53.669Z,66.70
2019-03-29T05:02:58.858Z,73.60
2019-03-29T05:04:04.365Z,62.93
2019-03-29T05:05:09.584Z,56.80
2019-03-29T05:06:14.694Z,63.23
2019-03-29T05:07:19.804Z,71.37
2019-03-29T05:08:24.926Z,59.63
2019-03-29T05:09:30.060Z,69.25
2019-03-29T05:10:38.760Z,104.80
2019-03-29T05:12:33.626Z,83.55
2019-03-29T05:13:39.641Z,123.90
2019-03-29T05:14:57.418Z,314.90
2019-03-29T05:16:13.582Z,88.92
2019-03-29T05:17:29.286Z,71.80
2019-03-29T05:18:36.441Z,65.75
2019-03-29T05:20:05.909Z,64.12
2019-03-29T05:21:11.191Z,72.10
2019-03-29T05:22:20.267Z,64.40
2019-03-29T05:23:25.811Z,66.82
2019-03-29T05:26:07.379Z,61.13
2019-03-29T05:27:12.469Z,69.03
2019-03-29T05:28:17.632Z,72.12
2019-03-29T05:29:23.062Z,64.62
2019-03-29T05:30:30.601Z,63.20
2019-03-29T05:31:35.795Z,72.22
2019-03-29T05:32:40.927Z,65.85
2019-03-29T05:33:46.028Z,67.12
2019-03-29T05:34:51.149Z,67.15
2019-03-29T05:35:56.301Z,76.62
2019-03-29T05:37:01.467Z,65.28
2019-03-29T05:38:06.602Z,70.20
2019-03-29T05:39:11.715Z,68.25
2019-03-29T05:40:16.850Z,76.02
2019-03-29T05:41:22.020Z,73.55
2019-03-29T05:42:27.118Z,72.80
2019-03-29T05:43:32.241Z,74.05
2019-03-29T05:44:40.508Z,64.07
2019-03-29T05:45:55.685Z,68.00
2019-03-29T05:47:00.823Z,64.53
2019-03-29T05:48:05.993Z,67.82
2019-03-29T05:49:11.181Z,65.32
2019-03-29T05:50:16.807Z,74.03
2019-03-29T05:51:21.983Z,72.53
2019-03-29T05:52:27.240Z,68.90
2019-03-29T05:53:32.405Z,63.58
2019-03-29T05:54:37.560Z,68.35
2019-03-29T05:55:42.701Z,74.15
2019-03-29T05:56:47.888Z,62.95
2019-03-29T05:57:53.043Z,66.12
2019-03-29T05:58:58.420Z,66.10
2019-03-29T06:00:03.680Z,72.37
2019-03-29T06:01:08.806Z,70.32
2019-03-29T06:02:13.943Z,64.00
2019-03-29T06:03:19.092Z,70.70
2019-03-29T06:04:24.211Z,78.87
2019-03-29T06:05:29.399Z,69.72
2019-03-29T06:06:34.604Z,68.80
2019-03-29T06:07:39.899Z,76.62
2019-03-29T06:08:45.153Z,69.40
2019-03-29T06:09:50.588Z,71.87
2019-03-29T06:10:55.873Z,66.92
2019-03-29T06:12:01.060Z,72.60
2019-03-29T06:13:06.225Z,75.10
2019-03-29T06:14:11.349Z,62.55
2019-03-29T06:15:16.481Z,74.35
2019-03-29T06:16:21.628Z,66.28
2019-03-29T06:17:26.853Z,69.67
2019-03-29T06:18:31.963Z,67.90
2019-03-29T06:19:37.124Z,74.07
2019-03-29T06:20:42.253Z,70.97
2019-03-29T06:21:47.382Z,69.65
2019-03-29T06:22:52.576Z,66.20
2019-03-29T06:23:57.715Z,72.50
2019-03-29T06:25:02.895Z,67.00
2019-03-29T06:26:08.072Z,67.22
2019-03-29T06:27:13.371Z,65.22
2019-03-29T06:28:18.570Z,63.68
2019-03-29T06:29:24.013Z,68.97
2019-03-29T06:30:31.404Z,69.15
2019-03-29T06:31:36.676Z,63.13
2019-03-29T06:32:41.862Z,61.58
2019-03-29T06:33:47.052Z,68.75
2019-03-29T06:34:52.383Z,66.17
2019-03-29T06:35:58.805Z,70.97
2019-03-29T06:37:04.788Z,99.37
2019-03-29T06:38:11.124Z,79.75
2019-03-29T06:39:17.190Z,94.67
2019-03-29T06:40:26.623Z,68.42
2019-03-29T06:41:31.770Z,66.10
2019-03-29T06:42:37.939Z,69.77
2019-03-29T06:43:43.099Z,59.75
2019-03-29T06:44:49.245Z,63.13
2019-03-29T06:45:54.548Z,58.60
2019-03-29T06:46:59.711Z,65.40
2019-03-29T06:48:04.904Z,59.42
2019-03-29T06:49:10.089Z,56.63
2019-03-29T06:50:15.244Z,59.05
2019-03-29T06:51:20.430Z,68.30
2019-03-29T06:52:25.584Z,55.67
2019-03-29T06:53:30.919Z,58.90
2019-03-29T06:54:36.100Z,58.35
2019-03-29T06:55:46.423Z,66.62
2019-03-29T06:56:51.876Z,59.85
2019-03-29T06:57:57.524Z,63.02
2019-03-29T06:59:02.723Z,60.58
2019-03-29T07:00:08.084Z,59.53
2019-03-29T07:01:13.381Z,61.48
2019-03-29T07:02:18.585Z,64.50
2019-03-29T07:03:23.742Z,57.80
2019-03-29T07:04:28.997Z,53.00
2019-03-29T07:05:34.142Z,58.28
2019-03-29T07:06:39.299Z,56.48
2019-03-29T07:07:44.732Z,61.68
2019-03-29T07:08:50.053Z,60.10
2019-03-29T07:09:55.182Z,65.37
2019-03-29T07:11:00.419Z,59.55
2019-03-29T07:12:05.627Z,62.30
2019-03-29T07:13:10.758Z,59.95
2019-03-29T07:14:15.907Z,51.92
2019-03-29T07:15:21.164Z,59.33
2019-03-29T07:16:26.466Z,58.92
2019-03-29T07:17:31.640Z,54.65
2019-03-29T07:18:36.782Z,57.60
2019-03-29T07:19:41.942Z,55.73
2019-03-29T07:20:47.175Z,65.72
2019-03-29T07:21:52.341Z,66.37
2019-03-29T07:22:58.545Z,56.28
2019-03-29T07:24:03.683Z,59.08
2019-03-29T07:25:10.381Z,59.63
2019-03-29T07:26:16.603Z,87.10
2019-03-29T07:27:21.790Z,61.70
2019-03-29T07:28:27.143Z,177.30
2019-03-29T07:29:32.287Z,77.90
2019-03-29T07:30:37.661Z,62.75
2019-03-29T07:31:43.013Z,56.33
2019-03-29T07:32:48.231Z,55.10
2019-03-29T07:33:53.473Z,82.67
2019-03-29T07:34:58.643Z,63.85
2019-03-29T07:36:03.851Z,64.30
2019-03-29T07:37:09.109Z,58.73
2019-03-29T07:38:14.427Z,52.05
2019-03-29T07:39:19.591Z,60.12
2019-03-29T07:40:24.730Z,62.10
2019-03-29T07:41:32.185Z,57.75
2019-03-29T07:42:36.850Z,70.80
2019-03-29T07:43:42.103Z,96.80
2019-03-29T07:44:47.399Z,68.07
2019-03-29T07:45:52.628Z,76.75
2019-03-29T07:46:57.921Z,63.78
2019-03-29T07:48:03.222Z,61.28
2019-03-29T07:49:08.428Z,69.62
2019-03-29T07:50:14.807Z,51.75
2019-03-29T07:51:20.080Z,50.83
2019-03-29T07:52:25.306Z,55.40
2019-03-29T07:53:31.454Z,61.85
2019-03-29T07:54:36.634Z,52.03
2019-03-29T07:55:41.820Z,56.35
2019-03-29T07:56:48.081Z,68.60
2019-03-29T07:57:53.213Z,140.10
2019-03-29T07:58:58.393Z,94.05
2019-03-29T08:00:03.862Z,65.50
2019-03-29T08:01:09.049Z,126.40
2019-03-29T08:02:14.281Z,69.90
2019-03-29T08:03:21.181Z,79.80
2019-03-29T08:04:26.346Z,64.60
2019-03-29T08:05:31.620Z,71.33
2019-03-29T08:06:36.762Z,57.78
2019-03-29T08:07:41.967Z,57.00
2019-03-29T08:08:47.154Z,56.85
2019-03-29T08:09:53.990Z,58.52
2019-03-29T08:10:59.505Z,60.55
2019-03-29T08:12:16.798Z,65.20
2019-03-29T08:13:22.041Z,56.00
2019-03-29T08:14:27.275Z,53.33
2019-03-29T08:15:32.465Z,53.48
2019-03-29T08:16:37.704Z,53.92
2019-03-29T08:17:42.893Z,53.10
2019-03-29T08:18:48.070Z,54.53
2019-03-29T08:20:24.481Z,53.28
2019-03-29T08:21:00.191Z,52.85
2019-03-29T08:22:05.473Z,53.52
2019-03-29T08:23:10.755Z,54.55
2019-03-29T08:24:15.923Z,51.92
2019-03-29T08:25:21.099Z,54.40
2019-03-29T08:26:26.288Z,51.02
2019-03-29T08:27:31.528Z,50.40
2019-03-29T08:28:36.753Z,52.08
2019-03-29T08:29:42.008Z,53.10
2019-03-29T08:30:47.245Z,62.17
2019-03-29T08:31:55.351Z,53.20
2019-03-29T08:32:59.256Z,55.80
2019-03-29T08:34:04.419Z,110.35
2019-03-29T08:35:09.931Z,62.10
2019-03-29T08:36:15.070Z,51.50
2019-03-29T08:37:24.279Z,52.88
2019-03-29T08:38:30.413Z,50.98
2019-03-29T08:39:35.579Z,48.08
2019-03-29T08:40:44.917Z,53.17
2019-03-29T08:41:59.500Z,53.98
2019-03-29T08:42:56.172Z,53.23
2019-03-29T08:44:01.356Z,44.27
2019-03-29T08:45:07.366Z,54.33
2019-03-29T08:46:12.596Z,54.58
2019-03-29T08:47:17.778Z,52.90
2019-03-29T08:48:22.959Z,48.25
2019-03-29T08:49:28.134Z,50.25
2019-03-29T08:50:33.340Z,51.88
2019-03-29T08:51:41.274Z,45.38
2019-03-29T08:52:45.335Z,51.55
2019-03-29T08:53:50.496Z,51.42
2019-03-29T08:54:55.661Z,55.15
2019-03-29T08:56:00.761Z,56.92
2019-03-29T08:57:05.963Z,50.08
2019-03-29T08:58:11.105Z,50.30
2019-03-29T08:59:17.677Z,55.65
2019-03-29T09:00:33.217Z,50.88
2019-03-29T09:01:39.574Z,50.58
2019-03-29T09:02:44.812Z,51.65
2019-03-29T09:04:01.477Z,52.17
2019-03-29T09:04:57.004Z,53.52
2019-03-29T09:06:02.544Z,53.42
2019-03-29T09:07:07.670Z,51.58
2019-03-29T09:08:12.936Z,46.60
2019-03-29T09:09:18.065Z,48.63
2019-03-29T09:10:25.046Z,53.92
2019-03-29T09:11:30.264Z,51.73
2019-03-29T09:12:35.477Z,82.62
2019-03-29T09:13:40.583Z,90.67
2019-03-29T09:14:46.818Z,58.60
2019-03-29T09:15:52.019Z,51.35
2019-03-29T09:16:57.170Z,61.80
2019-03-29T09:18:02.337Z,51.23
2019-03-29T09:19:07.446Z,48.05
2019-03-29T09:20:12.779Z,62.23
2019-03-29T09:21:17.942Z,48.25
2019-03-29T09:22:23.232Z,42.03
2019-03-29T09:23:30.090Z,73.05
2019-03-29T09:24:35.303Z,63.70
2019-03-29T09:25:40.719Z,71.33
2019-03-29T09:26:46.006Z,44.23
2019-03-29T09:27:51.124Z,46.60
2019-03-29T09:28:56.289Z,42.25
2019-03-29T09:30:04.896Z,46.58
2019-03-29T09:31:08.448Z,44.58
2019-03-29T09:32:13.677Z,41.25
2019-03-29T09:33:18.798Z,44.95
2019-03-29T09:34:24.422Z,45.20
2019-03-29T09:35:29.590Z,47.33
2019-03-29T09:36:34.767Z,49.70
2019-03-29T09:37:39.972Z,44.63
2019-03-29T09:38:46.300Z,42.27
2019-03-29T09:39:51.485Z,53.42
2019-03-29T09:40:59.043Z,44.50
2019-03-29T09:42:04.154Z,47.30
2019-03-29T09:43:09.599Z,73.17
2019-03-29T09:44:14.779Z,46.25
2019-03-29T09:45:20.061Z,45.80
2019-03-29T09:46:25.482Z,40.35
2019-03-29T09:47:37.049Z,44.55
2019-03-29T09:48:37.522Z,45.05
2019-03-29T09:49:43.039Z,44.65
2019-03-29T09:50:50.677Z,53.08
2019-03-29T09:51:55.293Z,38.63
2019-03-29T09:53:01.484Z,36.90
2019-03-29T09:54:06.961Z,39.33
2019-03-29T09:55:12.285Z,37.17
2019-03-29T09:56:17.615Z,40.78
2019-03-29T09:57:36.217Z,36.23
2019-03-29T09:58:29.661Z,41.05
2019-03-29T09:59:34.884Z,42.03
2019-03-29T10:00:40.122Z,40.65
2019-03-29T10:01:45.296Z,40.08
2019-03-29T10:02:50.476Z,44.85
2019-03-29T10:03:55.692Z,40.80
2019-03-29T10:05:00.863Z,37.48
2019-03-29T10:06:06.139Z,35.80
2019-03-29T10:07:11.365Z,35.38
2019-03-29T10:08:16.734Z,36.33
2019-03-29T10:09:21.881Z,44.27
2019-03-29T10:10:27.030Z,34.25
2019-03-29T10:11:32.182Z,39.20
2019-03-29T10:12:43.766Z,39.88
2019-03-29T10:13:44.331Z,38.88
2019-03-29T10:14:49.555Z,36.03
2019-03-29T10:15:54.755Z,38.15
2019-03-29T10:16:59.984Z,42.95
2019-03-29T10:18:05.199Z,33.02
2019-03-29T10:19:10.494Z,55.35
2019-03-29T10:20:15.827Z,38.80
2019-03-29T10:21:21.084Z,33.25
2019-03-29T10:22:26.260Z,34.33
2019-03-29T10:23:31.506Z,32.58
2019-03-29T10:24:36.804Z,36.00
2019-03-29T10:25:42.000Z,38.28
2019-03-29T10:26:47.164Z,34.78
2019-03-29T10:27:52.390Z,33.40
2019-03-29T10:28:57.516Z,32.45
2019-03-29T10:30:02.965Z,33.75
2019-03-29T10:31:08.316Z,36.85
2019-03-29T10:32:13.648Z,33.60
2019-03-29T10:33:18.876Z,32.78
2019-03-29T10:34:24.028Z,32.25
2019-03-29T10:35:29.286Z,30.95
2019-03-29T10:36:34.416Z,32.63
2019-03-29T10:37:39.619Z,28.10
2019-03-29T10:38:45.752Z,27.60
2019-03-29T10:39:50.896Z,33.40
2019-03-29T10:40:56.044Z,46.20
2019-03-29T10:42:01.456Z,33.70
2019-03-29T10:43:06.822Z,22.00
2019-03-29T10:44:11.962Z,27.05
2019-03-29T10:45:17.191Z,29.10
2019-03-29T10:46:22.382Z,28.15
2019-03-29T10:47:42.406Z,24.43
2019-03-29T10:48:34.657Z,28.62
2019-03-29T10:49:39.967Z,24.10
2019-03-29T10:50:45.221Z,28.10
2019-03-29T10:51:50.425Z,24.60
2019-03-29T10:52:55.616Z,23.15
2019-03-29T10:54:00.788Z,22.80
2019-03-29T10:55:06.520Z,26.80
2019-03-29T10:56:11.776Z,23.87
2019-03-29T10:57:17.106Z,28.02
2019-03-29T10:58:22.295Z,21.17
2019-03-29T10:59:28.109Z,25.50
2019-03-29T11:00:35.602Z,22.00
2019-03-29T11:01:40.865Z,18.70
2019-03-29T11:02:46.004Z,22.75
2019-03-29T11:03:51.214Z,23.40
2019-03-29T11:04:56.414Z,20.10
2019-03-29T11:06:01.688Z,19.67
2019-03-29T11:07:06.959Z,19.75
2019-03-29T11:08:12.443Z,18.73
2019-03-29T11:09:17.839Z,20.17
2019-03-29T11:10:31.155Z,17.40
2019-03-29T11:11:37.468Z,20.37
2019-03-29T11:12:43.460Z,17.20
2019-03-29T11:13:48.722Z,20.20
2019-03-29T11:14:54.007Z,23.95
2019-03-29T11:15:59.219Z,18.35
2019-03-29T11:17:04.408Z,19.42
2019-03-29T11:18:09.826Z,15.60
2019-03-29T11:19:14.993Z,12.33
2019-03-29T11:20:20.167Z,14.68
2019-03-29T11:21:25.363Z,17.85
2019-03-29T11:22:30.494Z,12.82
2019-03-29T11:23:36.670Z,11.65
2019-03-29T11:24:41.814Z,12.13
2019-03-29T11:25:48.609Z,12.23
2019-03-29T11:26:53.976Z,14.47
2019-03-29T11:27:59.122Z,13.95
2019-03-29T11:29:04.353Z,15.38
2019-03-29T11:30:09.695Z,10.55
2019-03-29T11:31:14.880Z,10.95
2019-03-29T11:32:20.054Z,11.20
2019-03-29T11:33:25.241Z,12.05
2019-03-29T11:34:30.538Z,9.78
2019-03-29T11:35:35.900Z,9.80
2019-03-29T11:36:41.132Z,10.68
2019-03-29T11:37:46.389Z,9.78
2019-03-29T11:38:51.555Z,8.23
2019-03-29T11:39:56.744Z,10.15
2019-03-29T11:41:01.915Z,14.63
2019-03-29T11:42:07.128Z,7.72
2019-03-29T11:43:25.945Z,10.13
2019-03-29T11:44:20.096Z,10.55
2019-03-29T11:45:25.388Z,8.28
2019-03-29T11:46:30.652Z,7.37
2019-03-29T11:47:35.776Z,7.53
2019-03-29T11:48:40.977Z,39.75
2019-03-29T11:49:46.200Z,13.13
2019-03-29T11:50:51.479Z,4.05
2019-03-29T11:51:56.595Z,15.38
2019-03-29T11:53:02.722Z,3.30
2019-03-29T11:54:07.922Z,2.30
2019-03-29T11:55:13.206Z,5.05
2019-03-29T11:56:18.378Z,5.25
2019-03-29T11:57:23.535Z,3.27
2019-03-29T11:58:28.680Z,3.67
2019-03-29T11:59:33.863Z,5.20
2019-03-29T12:00:40.649Z,2.45
2019-03-29T12:01:45.813Z,2.10
2019-03-29T12:02:50.985Z,7.25
2019-03-29T12:03:57.188Z,3.83
2019-03-29T12:05:02.323Z,3.60
2019-03-29T12:06:07.472Z,7.17
2019-03-29T12:07:12.806Z,3.60
2019-03-29T12:08:18.105Z,4.20
2019-03-29T12:09:23.328Z,4.50
2019-03-29T12:10:28.652Z,3.58
2019-03-29T12:11:33.943Z,4.30
2019-03-29T12:12:39.286Z,3.67
2019-03-29T12:13:44.530Z,5.47
2019-03-29T12:14:49.710Z,4.58
2019-03-29T12:15:54.862Z,7.62
2019-03-29T12:17:00.308Z,3.67
2019-03-29T12:18:06.537Z,3.05
2019-03-29T12:19:11.876Z,4.85
2019-03-29T12:20:17.171Z,4.37
2019-03-29T12:21:22.477Z,11.83
2019-03-29T12:22:27.712Z,7.97
2019-03-29T12:23:32.936Z,7.08
2019-03-29T12:24:38.149Z,18.77
2019-03-29T12:25:43.481Z,40.45
2019-03-29T12:26:48.676Z,114.77
2019-03-29T12:27:53.965Z,43.20
2019-03-29T12:28:59.136Z,8.43
2019-03-29T12:30:06.820Z,24.10
2019-03-29T12:31:12.151Z,67.72
2019-03-29T12:32:17.323Z,4.55
2019-03-29T12:33:22.474Z,6.33
2019-03-29T12:34:27.583Z,5.53
2019-03-29T12:35:32.960Z,4.60
2019-03-29T12:36:38.222Z,4.67
2019-03-29T12:37:44.372Z,10.32
2019-03-29T12:38:49.571Z,5.83
2019-03-29T12:39:54.704Z,4.80
2019-03-29T12:40:59.945Z,10.03
2019-03-29T12:42:06.272Z,5.35
2019-03-29T12:43:12.732Z,6.12
2019-03-29T12:44:18.147Z,5.80
2019-03-29T12:45:23.393Z,6.65
2019-03-29T12:46:28.597Z,7.60
2019-03-29T12:47:33.771Z,6.37
2019-03-29T12:48:38.998Z,5.67
2019-03-29T12:49:44.238Z,4.05
2019-03-29T12:50:49.871Z,4.70
2019-03-29T12:51:55.003Z,11.63
2019-03-29T12:53:00.200Z,4.90
2019-03-29T12:54:05.629Z,8.73
2019-03-29T12:55:10.995Z,4.78
2019-03-29T12:56:16.285Z,4.08
2019-03-29T12:57:21.415Z,4.70
2019-03-29T12:58:26.540Z,5.80
2019-03-29T12:59:33.046Z,4.37
2019-03-29T13:00:38.396Z,12.68
2019-03-29T13:01:43.635Z,6.50
2019-03-29T13:02:48.775Z,10.20
2019-03-29T13:03:53.882Z,7.67
2019-03-29T13:04:59.041Z,11.90
2019-03-29T13:06:04.129Z,20.90
2019-03-29T13:07:09.278Z,23.77
2019-03-29T13:08:17.513Z,11.97
2019-03-29T13:09:22.758Z,10.38
2019-03-29T13:10:28.280Z,9.08
2019-03-29T13:11:33.511Z,11.48
2019-03-29T13:12:38.688Z,13.20
2019-03-29T13:13:43.842Z,13.03
2019-03-29T13:14:49.007Z,10.40
2019-03-29T13:15:54.173Z,14.65
2019-03-29T13:17:02.599Z,11.97
2019-03-29T13:18:06.420Z,10.40
2019-03-29T13:19:11.578Z,8.83
2019-03-29T13:20:16.728Z,8.63
2019-03-29T13:21:21.904Z,17.60
2019-03-29T13:22:27.435Z,10.48
2019-03-29T13:23:32.586Z,13.00
2019-03-29T13:24:37.749Z,13.95
2019-03-29T13:25:42.847Z,9.33
2019-03-29T13:26:48.018Z,8.28
2019-03-29T13:27:56.350Z,8.38
2019-03-29T13:29:00.115Z,7.10
2019-03-29T13:30:06.950Z,7.75
2019-03-29T13:31:12.945Z,8.33
2019-03-29T13:32:18.238Z,8.40
2019-03-29T13:33:23.478Z,6.67
2019-03-29T13:34:28.700Z,6.90
2019-03-29T13:35:34.933Z,7.78
2019-03-29T13:36:40.067Z,7.95
2019-03-29T13:37:45.241Z,8.98
2019-03-29T13:38:50.389Z,9.70
2019-03-29T13:39:55.527Z,10.95
2019-03-29T13:41:00.727Z,11.40
2019-03-29T13:42:05.894Z,9.90
2019-03-29T13:43:11.164Z,12.90
2019-03-29T13:44:23.774Z,7.20
2019-03-29T13:45:23.191Z,7.62
2019-03-29T13:46:28.359Z,13.83
2019-03-29T13:47:33.556Z,10.85
2019-03-29T13:48:38.810Z,9.55
2019-03-29T13:49:43.997Z,9.05
2019-03-29T13:50:49.219Z,10.00
2019-03-29T13:51:54.300Z,7.87
2019-03-29T13:53:00.504Z,7.87
2019-03-29T13:54:05.840Z,8.95
2019-03-29T13:55:11.249Z,9.05
2019-03-29T13:56:16.554Z,9.48
2019-03-29T13:57:21.793Z,8.95
2019-03-29T13:58:27.078Z,7.00
2019-03-29T13:59:32.317Z,10.13
2019-03-29T14:00:37.513Z,8.98
2019-03-29T14:01:42.757Z,13.03
2019-03-29T14:02:48.102Z,10.35
2019-03-29T14:03:53.278Z,13.10
2019-03-29T14:04:59.104Z,10.70
2019-03-29T14:06:04.514Z,8.85
2019-03-29T14:07:09.908Z,10.00
2019-03-29T14:08:15.096Z,11.08
2019-03-29T14:09:20.431Z,6.75
2019-03-29T14:10:25.636Z,9.13